createdAt,value
2019-04-11T00:04:26.291Z,9.80
2019-04-11T00:09:28.451Z,7.67
2019-04-11T00:14:31.635Z,8.33
2019-04-11T00:19:33.953Z,7.43
2019-04-11T00:24:36.746Z,10.90
2019-04-11T00:29:38.924Z,6.23
2019-04-11T00:34:40.985Z,8.33
2019-04-11T00:39:43.731Z,7.53
2019-04-11T00:44:45.905Z,15.27
2019-04-11T00:49:48.481Z,14.83
2019-04-11T00:54:51.177Z,11.07
2019-04-11T00:59:54.329Z,9.57
2019-04-11T01:04:57.108Z,7.27
2019-04-11T01:09:59.406Z,9.23
2019-04-11T01:15:01.446Z,10.13
2019-04-11T01:20:06.996Z,8.80
2019-04-11T01:25:10.357Z,6.03
2019-04-11T01:30:24.904Z,9.03
2019-04-11T01:35:27.189Z,7.80
2019-04-11T01:40:29.842Z,10.80
2019-04-11T01:45:32.228Z,7.70
2019-04-11T01:50:35.017Z,7.60
2019-04-11T01:55:37.174Z,8.13
2019-04-11T02:01:06.379Z,10.63
2019-04-11T02:06:09.737Z,10.03
2019-04-11T02:11:12.937Z,8.27
2019-04-11T02:16:15.210Z,7.23
2019-04-11T02:21:17.813Z,9.67
2019-04-11T02:26:29.410Z,9.20
2019-04-11T02:31:32.598Z,9.80
2019-04-11T02:36:36.425Z,8.97
2019-04-11T02:41:39.852Z,10.00
2019-04-11T02:46:50.372Z,9.60
2019-04-11T02:51:47.324Z,9.53
2019-04-11T02:56:52.463Z,9.00
2019-04-11T03:01:55.778Z,11.00
2019-04-11T03:07:00.111Z,9.47
2019-04-11T03:12:02.969Z,9.70
2019-04-11T03:17:13.037Z,9.30
2019-04-11T03:22:10.298Z,8.53
2019-04-11T03:27:12.535Z,9.43
2019-04-11T03:33:00.593Z,8.33
2019-04-11T03:37:43.094Z,11.10
2019-04-11T03:42:38.140Z,11.70
2019-04-11T03:47:37.482Z,12.97
2019-04-11T03:52:32.752Z,19.70
2019-04-11T03:57:35.215Z,17.73
2019-04-11T04:02:38.988Z,9.50
2019-04-11T04:07:41.485Z,9.57
2019-04-11T04:12:45.248Z,10.60
2019-04-11T04:17:59.556Z,11.33
2019-04-11T04:23:20.867Z,9.77
2019-04-11T04:28:23.853Z,12.00
2019-04-11T04:33:27.276Z,13.03
2019-04-11T04:38:31.605Z,13.83
2019-04-11T04:43:36.195Z,11.97
2019-04-11T04:48:38.297Z,12.10
2019-04-11T04:53:43.058Z,12.17
2019-04-11T04:58:46.691Z,11.80
2019-04-11T05:03:50.866Z,12.37
2019-04-11T05:08:53.094Z,13.43
2019-04-11T05:13:56.573Z,13.03
2019-04-11T05:19:01.434Z,12.50
2019-04-11T05:24:04.068Z,13.97
2019-04-11T05:29:06.920Z,15.03
2019-04-11T05:34:09.955Z,17.10
2019-04-11T05:39:13.092Z,12.30
2019-04-11T05:44:16.725Z,13.87
2019-04-11T05:49:41.659Z,14.37
2019-04-11T05:54:54.339Z,16.33
2019-04-11T05:59:57.734Z,13.27
2019-04-11T06:05:06.861Z,14.67
2019-04-11T06:10:14.673Z,15.23
2019-04-11T06:15:21.517Z,16.60
2019-04-11T06:20:43.523Z,13.43
2019-04-11T06:26:24.686Z,11.90
2019-04-11T06:31:45.448Z,10.50
2019-04-11T06:36:55.785Z,12.13
2019-04-11T06:42:16.446Z,11.13
2019-04-11T06:47:40.989Z,11.87
2019-04-11T06:52:43.412Z,11.53
2019-04-11T06:57:46.239Z,13.67
2019-04-11T07:02:59.354Z,17.20
2019-04-11T07:08:02.159Z,11.93
2019-04-11T07:13:33.146Z,10.13
2019-04-11T07:18:57.035Z,12.97
2019-04-11T07:24:18.184Z,9.77
2019-04-11T07:29:40.197Z,10.63
2019-04-11T07:35:17.372Z,9.37
2019-04-11T07:40:58.887Z,12.87
2019-04-11T07:46:25.221Z,9.10
2019-04-11T07:51:28.576Z,9.77
2019-04-11T07:56:59.132Z,11.07
2019-04-11T08:02:23.934Z,10.83
2019-04-11T08:07:53.084Z,8.50
2019-04-11T08:12:56.144Z,11.00
2019-04-11T08:18:01.970Z,10.03
2019-04-11T08:23:07.590Z,8.17
2019-04-11T08:28:13.917Z,10.30
2019-04-11T08:33:16.239Z,8.67
2019-04-11T08:38:24.686Z,7.97
2019-04-11T08:43:29.448Z,9.03
2019-04-11T08:48:33.282Z,8.03
2019-04-11T08:53:53.821Z,6.63
2019-04-11T08:59:31.397Z,6.83
2019-04-11T09:05:06.918Z,8.83
2019-04-11T09:10:28.726Z,9.27
2019-04-11T09:15:49.241Z,9.60
2019-04-11T09:21:18.196Z,8.33
2019-04-11T09:26:41.133Z,15.30
2019-04-11T09:32:07.688Z,18.53
2019-04-11T09:37:22.074Z,7.80
2019-04-11T09:42:49.334Z,5.90
2019-04-11T09:48:14.752Z,8.07
2019-04-11T09:53:14.322Z,8.57
2019-04-11T09:58:23.652Z,8.33
2019-04-11T10:03:28.118Z,8.57
2019-04-11T10:08:44.647Z,8.73
2019-04-11T10:14:01.762Z,7.50
2019-04-11T10:19:07.633Z,8.40
2019-04-11T10:24:21.267Z,7.03
2019-04-11T10:29:42.372Z,6.70
2019-04-11T10:35:20.167Z,8.13
2019-04-11T10:40:42.164Z,7.57
2019-04-11T10:46:07.209Z,6.60
2019-04-11T10:51:13.204Z,5.23
2019-04-11T10:56:41.244Z,7.70
2019-04-11T11:02:06.624Z,5.57
2019-04-11T11:07:14.503Z,7.13
2019-04-11T11:12:35.172Z,7.70
2019-04-11T11:18:29.637Z,6.47
2019-04-11T11:23:29.501Z,6.50
2019-04-11T11:28:34.126Z,6.93
2019-04-11T11:33:38.507Z,8.87
2019-04-11T11:38:44.049Z,6.97
2019-04-11T11:43:48.265Z,5.63
2019-04-11T11:48:58.150Z,5.73
2019-04-11T11:54:09.713Z,7.77
2019-04-11T11:59:21.229Z,6.17
2019-04-11T12:04:42.925Z,7.70
2019-04-11T12:10:03.196Z,9.13
2019-04-11T12:15:43.557Z,6.37
2019-04-11T12:20:54.723Z,6.80
2019-04-11T12:25:55.788Z,7.03
2019-04-11T12:31:03.822Z,8.97
2019-04-11T12:36:14.694Z,6.97
2019-04-11T12:41:28.877Z,7.83
2019-04-11T12:46:49.208Z,5.07
2019-04-11T12:52:09.738Z,5.63
2019-04-11T12:57:30.276Z,7.30
2019-04-11T13:02:59.456Z,6.13
2019-04-11T13:08:20.150Z,5.67
2019-04-11T13:13:35.987Z,6.40
2019-04-11T13:18:56.790Z,6.87
2019-04-11T13:24:17.287Z,6.80
2019-04-11T13:29:26.578Z,4.90
2019-04-11T13:34:28.824Z,4.70
2019-04-11T13:39:31.012Z,5.57
2019-04-11T13:44:35.349Z,7.33
2019-04-11T13:49:51.438Z,5.07
2019-04-11T13:55:00.526Z,5.27
2019-04-11T14:01:14.816Z,7.03
2019-04-11T14:06:21.676Z,4.63
2019-04-11T14:11:24.093Z,6.70
2019-04-11T14:16:26.365Z,6.57
2019-04-11T14:21:31.452Z,4.53
2019-04-11T14:26:36.637Z,4.43
2019-04-11T14:37:02.038Z,6.03
2019-04-11T14:42:29.463Z,6.53
2019-04-11T14:47:50.289Z,4.60
2019-04-11T14:53:20.867Z,5.23
2019-04-11T14:58:40.972Z,4.30
2019-04-11T15:04:13.515Z,5.77
2019-04-11T15:09:35.220Z,3.73
2019-04-11T15:14:51.694Z,5.30
2019-04-11T15:20:10.282Z,9.87
2019-04-11T15:25:22.132Z,3.03
2019-04-11T15:30:24.981Z,2.77
2019-04-11T15:35:27.378Z,2.33
2019-04-11T15:40:35.547Z,3.23
2019-04-11T15:46:01.291Z,4.73
2019-04-11T15:51:21.747Z,5.53
2019-04-11T15:56:42.088Z,5.97
2019-04-11T16:02:06.602Z,4.07
2019-04-11T16:07:42.533Z,4.10
2019-04-11T16:12:52.439Z,2.77
2019-04-11T16:18:26.276Z,3.30
2019-04-11T16:23:36.668Z,4.00
2019-04-11T16:29:00.239Z,2.80
2019-04-11T16:34:08.927Z,3.80
2019-04-11T16:39:49.985Z,2.60
2019-04-11T16:45:12.523Z,20.83
2019-04-11T16:50:14.605Z,4.00
2019-04-11T16:55:16.740Z,10.83
2019-04-11T17:00:20.615Z,9.67
2019-04-11T17:05:23.998Z,2.50
2019-04-11T17:10:45.831Z,2.57
2019-04-11T17:15:47.927Z,4.10
2019-04-11T17:20:50.033Z,4.43
2019-04-11T17:25:53.083Z,4.50
2019-04-11T17:30:56.010Z,2.77
2019-04-11T17:36:02.141Z,1.40
2019-04-11T17:41:02.301Z,5.23
2019-04-11T17:46:04.343Z,5.73
2019-04-11T17:51:06.486Z,2.77
2019-04-11T17:56:08.613Z,3.00
2019-04-11T18:01:10.825Z,3.13
2019-04-11T18:06:16.913Z,2.23
2019-04-11T18:11:17.133Z,4.03
2019-04-11T18:16:19.183Z,5.23
2019-04-11T18:21:21.219Z,6.13
2019-04-11T18:26:23.300Z,3.33
2019-04-11T18:31:25.653Z,5.20
2019-04-11T18:36:31.796Z,5.53
2019-04-11T18:41:32.951Z,4.70
2019-04-11T18:46:35.039Z,3.50
2019-04-11T18:51:37.115Z,2.20
2019-04-11T18:56:39.166Z,3.47
2019-04-11T19:01:41.306Z,5.47
2019-04-11T19:06:45.434Z,4.13
2019-04-11T19:11:51.544Z,3.47
2019-04-11T19:16:53.822Z,5.03
2019-04-11T19:21:56.283Z,2.57
2019-04-11T19:26:58.370Z,2.03
2019-04-11T19:32:00.434Z,1.67
2019-04-11T19:37:03.845Z,18.73
2019-04-11T19:42:09.161Z,6.70
2019-04-11T19:47:11.857Z,3.20
2019-04-11T19:52:13.965Z,3.80
2019-04-11T19:57:16.046Z,4.90
2019-04-11T20:02:18.186Z,1.83
2019-04-11T20:07:20.355Z,3.57
2019-04-11T20:12:22.450Z,2.13
2019-04-11T20:17:24.510Z,2.87
2019-04-11T20:22:26.617Z,3.47
2019-04-11T20:27:28.707Z,4.50
2019-04-11T20:32:33.146Z,3.50
2019-04-11T20:37:39.534Z,2.17
2019-04-11T20:42:39.122Z,4.60
2019-04-11T20:47:41.156Z,4.33
2019-04-11T20:52:43.245Z,3.53
2019-04-11T20:57:45.311Z,2.77
2019-04-11T21:02:48.680Z,2.63
2019-04-11T21:07:50.756Z,3.30
2019-04-11T21:12:52.850Z,3.80
2019-04-11T21:17:56.102Z,2.23
2019-04-11T21:22:58.789Z,3.17
2019-04-11T21:28:00.966Z,2.87
2019-04-11T21:33:03.663Z,3.23
2019-04-11T21:38:06.534Z,2.77
2019-04-11T21:43:08.599Z,3.90
2019-04-11T21:48:12.902Z,2.73
2019-04-11T21:53:15.313Z,3.43
2019-04-11T21:58:20.194Z,4.10
2019-04-11T22:03:24.073Z,3.67
2019-04-11T22:08:25.607Z,9.83
2019-04-11T22:13:27.683Z,14.90
2019-04-11T22:18:29.811Z,7.03
2019-04-11T22:23:31.987Z,2.43
2019-04-11T22:28:34.375Z,2.20
2019-04-11T22:33:50.744Z,2.83
2019-04-11T22:38:52.865Z,3.27
2019-04-11T22:43:54.925Z,3.43
2019-04-11T22:48:57.058Z,5.17
2019-04-11T22:54:00.500Z,5.47
2019-04-11T22:59:02.805Z,2.57
2019-04-11T23:04:05.249Z,2.97
2019-04-11T23:09:07.673Z,2.47
2019-04-11T23:14:09.778Z,3.37
2019-04-11T23:19:14.333Z,3.90
2019-04-11T23:24:15.937Z,3.20
2019-04-11T23:29:18.063Z,5.63
2019-04-11T23:34:22.108Z,3.43
2019-04-11T23:39:24.179Z,2.47
2019-04-11T23:44:26.244Z,3.97
2019-04-11T23:49:28.438Z,2.43
2019-04-11T23:54:30.545Z,3.03
2019-04-11T23:59:32.767Z,2.07
